Tiempo atmosférico en la estación meteorológica de Utiel, València/Valencia (761 m.)



Fecha
DESCASC
Temp. máxima en grados centígrados (hora)
DESCASC
Temp. mínima en grados centígrados (hora)
DESCASC
Temp. media en grados centígrados
DESCASC
Racha de viento máxima en m/sg (hora)
DESCASC
Velocidad máxima media en intervalos de 10 minutos(hora)
DESCASC
Precipitaciones diarias en mm
DESCASC
Precipitaciones de 00:00 a 06:00 en mm
DESCASC
Precipitaciones de 06:00 a 12:00 en mm
DESCASC
Precipitaciones de 12:00 a 18:00 en mm
DESCASC
Precipitaciones de 18:00 a 24:00 en mm
DESCASC
16-06-2019 25.7 (15:40) 9.9 (07:00) 17.8 8.89 (14:10) 5.56 (14:10) 0 0 0 0 0
15-06-2019 27.1 (19:10) 10.7 (06:10) 18.9 11.94 (17:10) 5.83 (11:00) 0 0 0 0 0
14-06-2019 27.8 (17:20) 12.4 (04:30) 20.1 13.06 (16:30) 7.78 (17:50) 1 0 1 0 0
13-06-2019 22.5 (16:40) 13 (00:00) 17.8 9.72 (15:10) 6.39 (17:10) 0 0 0 0 0
12-06-2019 23.1 (16:10) 3.8 (00:00) 13.5 11.39 (17:20) 7.22 (18:10) 0 0 0 0 0
11-06-2019 23.3 (13:20) 9.5 (00:00) 16.4 13.33 (17:00) 9.17 (17:00) 0 0 0 0 0
10-06-2019 28 (16:40) 9.2 (00:00) 18.6 10.83 (18:30) 6.67 (18:30) 0 0 0 0 0
09-06-2019 29.3 (17:40) 11.1 (00:00) 20.2 10.28 (18:50) 6.11 (18:50) 0 0 0 0 0
08-06-2019 21.6 (14:40) 10 (00:00) 15.8 11.94 (13:20) 8.06 (10:40) 0 0 0 0 0
07-06-2019 24.2 (19:00) 7.4 (00:00) 15.8 13.61 (11:40) 8.61 (11:40) 0 0 0 0 0
06-06-2019 25.4 (15:50) 5 (00:00) 15.2 12.78 (15:10) 8.06 (16:50) 0 0 0 0 0
05-06-2019 22.9 (16:50) 11.7 (00:00) 17.3 16.39 (10:00) 11.11 (09:50) 0 0 0 0 0
04-06-2019 32.4 (17:30) 10.7 (00:00) 21.6 12.22 (16:00) 7.78 (16:10) 0 0 0 0 0
03-06-2019 33.6 (17:10) 10.3 (00:00) 21.9 11.94 (18:50) 8.06 (18:50) 0 0 0 0 0
02-06-2019 31.5 (16:40) 8.3 (00:00) 19.9 11.11 (17:30) 7.5 (17:40) 0 0 0 0 0
01-06-2019 29.4 (16:00) 9.7 (00:00) 19.5 10.56 (16:00) 6.67 (17:30) 0 0 0 0 0
31-05-2019 28.2 (16:50) 7.4 (00:00) 17.8 10.83 (17:40) 6.39 (19:10) 0 0 0 0 0
30-05-2019 27.5 (17:40) 5.9 (00:00) 16.7 9.72 (18:40) 6.39 (19:40) 0 0 0 0 0
29-05-2019 25.9 (17:10) 9.2 (00:00) 17.5 14.72 (06:00) 10 (06:10) 0 0 0 0 0
28-05-2019 29.2 (18:00) 10.7 (00:00) 20 10 (15:40) 6.94 (15:40) 0 0 0 0 0
27-05-2019 28.4 (15:40) 9 (00:00) 18.7 8.61 (13:30) 5.83 (06:40) 0 0 0 0 0
26-05-2019 25.1 (17:50) 9.1 (00:00) 17.1 10.83 (11:40) 7.5 (08:50) 0 0 0 0 0
25-05-2019 21.7 (18:00) 11.3 (00:00) 16.5 11.39 (07:40) 8.61 (07:40) 0 0 0 0 0
24-05-2019 18 (18:30) 12.6 (00:00) 15.3 8.06 (19:30) 4.72 (12:40) 2 0 2 0 0
23-05-2019 28.1 (19:10) 8.7 (00:00) 18.4 8.06 (18:10) 5.56 (18:50) 0 0 0 0 0
22-05-2019 26.2 (15:30) 7.7 (00:00) 17 10 (18:10) 6.94 (18:10) 0 0 0 0 0

Gráficas

Temp. máximas Temp. mínimas Temp. medias Precipitaciones Rachas de viento máximas Velocidades máximas media en intervalos de 10 minutos

Datos horarios

Fecha y hora oficial Temperatura (ºC) Velocidad del viento (km/h) Dirección del viento Racha (km/h) Dirección de racha Precipitación (mm) Presión (hPa) Tendencia (hPa) Humedad (%)
2019-06-20 23:00:00 19.6 4 Sudeste 15 Sudeste 0 927.5 1.6 54
2019-06-20 22:00:00 21 11 Sudeste 21 Sudeste 0 926.8 1 52
2019-06-20 21:00:00 23 14 Sudeste 26 Sudeste 0 926.6 0.8 44
2019-06-20 20:00:00 24.8 20 Sudeste 31 Sudeste 0 925.9 -0.1 39
2019-06-20 19:00:00 26.5 18 Sudeste 33 Sudeste 0 925.8 -0.7 34
2019-06-20 18:00:00 27.4 21 Sudeste 34 Sudeste 0 925.8 -0.7 33
2019-06-20 17:00:00 27.1 23 Sudeste 38 Sudeste 0 926 -1 32
2019-06-20 16:00:00 28 22 Sudeste 39 Sudeste 0 926.5 -1 32
2019-06-20 15:00:00 27.6 24 Sudeste 44 Sudeste 0 926.5 -1 33
2019-06-20 14:00:00 29.1 18 Sudeste 35 Sudeste 0 927 -0.6 29
2019-06-20 13:00:00 28.9 11 Sudeste 25 Sudeste 0 927.5 -0.1 22
2019-06-20 12:00:00 28 13 Sudeste 25 Sudeste 0 927.5 -0.1 27
2019-06-20 11:00:00 26.6 11 Sudeste 18 Sudeste 0 927.6 0 29
2019-06-20 10:00:00 23.8 9 Sudeste 13 Este 0 927.6 0.1 36
2019-06-20 09:00:00 20.4 3 Sudeste 5 Sudeste 0 927.6 0.1 44
2019-06-20 08:00:00 14 0 Calma 11 Noroeste 0 927.6 0.2 61
2019-06-20 07:00:00 12.4 9 Oeste 11 Noroeste 0 927.5 0 64
2019-06-20 06:00:00 13.2 3 Noroeste 9 Noroeste 0 927.5 -0.2 59
2019-06-20 05:00:00 14 4 Oeste 10 Noroeste 0 927.4 -0.6 56
2019-06-20 04:00:00 14.7 8 Noroeste 10 Noroeste 0 927.5 -0.5 50
2019-06-20 03:00:00 15.2 5 Noroeste 13 Noroeste 0 927.7 -0.2 48
2019-06-20 02:00:00 15.8 5 Noroeste 12 Norte 0 928 0.4 44
2019-06-20 01:00:00 16.8 2 Sudoeste 8 Norte 0 928 0.8 38
2019-06-20 00:00:00 18.8 7 Noroeste 8 Noroeste 0 927.9 0.9 33
2019-06-19 23:00:00 21 7 Noroeste 11 Noroeste 0 927.6 0.7 29
2019-06-19 22:00:00 24.1 10 Oeste 18 Oeste 0 927.2 0.3 24
2019-06-19 21:00:00 28.1 13 Oeste 28 Sudoeste 0 927 -0.2 18
2019-06-19 20:00:00 29.7 16 Oeste 28 Noroeste 0 926.9 -0.5 16
2019-06-19 19:00:00 30.5 13 Oeste 36 Oeste 0 926.9 -0.9 15
2019-06-19 18:00:00 30.7 15 Oeste 32 Noroeste 0 927.2 -1 15
2019-06-19 17:00:00 30.6 17 Sudoeste 41 Sudoeste 0 927.4 -1.2 16
2019-06-19 16:00:00 30.5 19 Sudoeste 39 Oeste 0 927.8 -1.1 14
2019-06-19 15:00:00 29.9 19 Oeste 34 Oeste 0 928.2 -0.8 17
2019-06-19 14:00:00 28.9 18 Sudoeste 31 Sudoeste 0 928.6 -0.6 19
2019-06-19 13:00:00 27.7 15 Sudoeste 31 Oeste 0 928.9 -0.5 23
2019-06-19 12:00:00 25.8 19 Oeste 35 Oeste 0 929 -0.4 30
2019-06-19 11:00:00 24.7 15 Oeste 30 Noroeste 0 929.2 0 33
2019-06-19 10:00:00 23.2 8 Noroeste 21 Noroeste 0 929.4 0.6 35
2019-06-19 09:00:00 18.3 2 Sur 5 Sudoeste 0 929.4 0.9 33
2019-06-19 08:00:00 11.9 4 Noroeste 6 Noroeste 0 929.2 1 49
2019-06-19 07:00:00 9.6 4 Noroeste 7 Norte 0 928.8 0.6 55
2019-06-19 06:00:00 10.3 5 Oeste 8 Norte 0 928.5 -0.1 56
2019-06-19 05:00:00 11.9 2 Sudeste 13 Noroeste 0 928.2 -0.7 49
2019-06-19 04:00:00 11.8 6 Norte 12 Norte 0 928.2 -0.8 54
2019-06-19 03:00:00 12.5 7 Oeste 14 Noroeste 0 928.6 -0.4 53
2019-06-19 02:00:00 13.3 8 Norte 10 Norte 0 928.9 0.1 51
2019-06-19 01:00:00 15.9 7 Noroeste 14 Noroeste 0 929 1 43
2019-06-19 00:00:00 17.7 4 Noroeste 13 Noroeste 0 929 1.5 38
2019-06-18 23:00:00 19.9 9 Noroeste 15 Noroeste 0 928.8 1.6 33
2019-06-18 22:00:00 23.2 3 Nordeste 23 Sudeste 0 928 1.3 32
2019-06-18 21:00:00 25.5 20 Sudeste 29 Sudeste 0 927.5 0.7 29
2019-06-18 20:00:00 27.5 18 Sudeste 32 Sudeste 0 927.2 -0.1 28
2019-06-18 19:00:00 29.4 19 Sudeste 33 Este 0 926.7 -1.1 25
2019-06-18 18:00:00 31.9 8 Sur 42 Oeste 0 926.8 -1.5 18
2019-06-18 17:00:00 32.2 16 Sudoeste 41 Oeste 0 927.3 -1.5 12
2019-06-18 16:00:00 32.2 15 Sudoeste 33 Sur 0 927.8 -1.5 12
2019-06-18 15:00:00 31.2 15 Sur 33 Sur 0 928.3 -1.2 13
2019-06-18 14:00:00 30.4 12 Sudoeste 26 Sudoeste 0 928.8 -0.8 13
2019-06-18 13:00:00 28.7 9 Sudoeste 19 Oeste 0 929.3 -0.7 17
2019-06-18 12:00:00 26.6 6 Noroeste 17 Sudeste 0 929.5 -0.5 21
2019-06-18 11:00:00 25.5 8 Sudoeste 16 Sudeste 0 929.6 -0.2 22
2019-06-18 10:00:00 22.7 5 Sudeste 7 Sudeste 0 930 0.5 30
2019-06-18 09:00:00 19.1 2 Nordeste 7 Noroeste 0 930 0.5 45
2019-06-18 08:00:00 13.7 4 Noroeste 12 Noroeste 0 929.8 0.3 60
2019-06-18 07:00:00 11.8 7 Noroeste 9 Noroeste 0 929.5 -0.2 67
2019-06-18 06:00:00 13.6 8 Norte 10 Noroeste 0 929.5 -0.5 61
2019-06-18 05:00:00 14.9 8 Norte 9 Norte 0 929.5 -0.8 57
2019-06-18 04:00:00 16.1 5 Noroeste 8 Noroeste 0 929.7 -0.8 53
2019-06-18 03:00:00 16.7 6 Noroeste 10 Noroeste 0 930 -0.5 51
2019-06-18 02:00:00 17.3 6 Noroeste 11 Noroeste 0 930.3 0.3 50
2019-06-18 01:00:00 18.2 7 Noroeste 11 Noroeste 0 930.5 1.2 50
2019-06-18 00:00:00 18.5 4 Norte 14 Noroeste 0 930.5 1.6 51
2019-06-17 23:00:00 20.9 4 Sur 13 Este 0 930 1.2 41
2019-06-17 22:00:00 23.1 11 Sudeste 27 Sudeste 0 929.3 1.1 36
2019-06-17 21:00:00 25.7 20 Sudeste 35 Sudeste 0 928.9 0.3 30
2019-06-17 20:00:00 27.6 23 Sudeste 36 Sudeste 0 928.8 -0.2 25
2019-06-17 19:00:00 29.9 21 Sudeste 39 Sudeste 0 928.2 -1.1 21
2019-06-17 18:00:00 31.1 17 Sudoeste 25 Sur 0 928.6 -1.4 12
2019-06-17 17:00:00 31.6 13 Sudoeste 30 Sudoeste 0 929 -1.4 12
2019-06-17 16:00:00 30.9 9 Sur 29 Sur 0 929.3 -1.8 14
2019-06-17 15:00:00 30.5 10 Sudoeste 23 Sudoeste 0 930 -1.4 14
2019-06-17 14:00:00 30.1 7 Sudoeste 21 Sur 0 930.4 -1.2 15
2019-06-17 13:00:00 28.8 13 Sudoeste 19 Sudoeste 0 931.1 -0.8 19
2019-06-17 12:00:00 26.8 4 Oeste 15 Sur 0 931.4 -0.5 29
2019-06-17 11:00:00 24.3 6 Sudoeste 14 Sudoeste 0 931.6 -0.1 35
2019-06-17 10:00:00 21.8 8 Sudoeste 17 Oeste 0 931.9 0.4 42
2019-06-17 09:00:00 17.8 0 Calma 5 Oeste 0 931.9 0.5 64
2019-06-17 08:00:00 11.8 3 Noroeste 9 Oeste 0 931.7 0.3 87
2019-06-17 07:00:00 9.7 7 Noroeste 9 Noroeste 0 931.5 -0.3 88
2019-06-17 06:00:00 10.9 4 Noroeste 10 Noroeste 0 931.4 -0.7 88
2019-06-17 05:00:00 11.3 8 Noroeste 10 Noroeste 0 931.4 -1 86
2019-06-17 04:00:00 12.4 7 Norte 9 Noroeste 0 931.8 -0.7 81
2019-06-17 03:00:00 13.8 9 Noroeste 14 Noroeste 0 932.1 -0.7 79
2019-06-17 02:00:00 14.4 8 Noroeste 12 Noroeste 0 932.4 -0.2 75
2019-06-17 01:00:00 14.6 7 Noroeste 10 Norte 0 932.5 0.4 71
2019-06-17 00:00:00 15.2 4 Norte 6 Oeste 0 932.8 0.8 63
2019-06-16 23:00:00 17.3 3 Este 11 Sudeste 0 932.6 0.8 61
2019-06-16 22:00:00 18.7 8 Sudeste 21 Sudeste 0 932.1 0.6 53
2019-06-16 21:00:00 20.2 15 Sudeste 27 Sudeste 0 932 0.2 57
2019-06-16 20:00:00 22.1 16 Sudeste 21 Sudeste 0 931.8 -0.2 45
2019-06-16 19:00:00 23.2 12 Sudeste 27 Este 0 931.5 -0.9 41
2019-06-16 18:00:00 24.2 18 Sudeste 31 Sudeste 0 931.8 -1.3 36
2019-06-16 17:00:00 24.9 15 Sur 27 Sudeste 0 932 -1.6 33
2019-06-16 16:00:00 25.1 15 Sudeste 29 Sudeste 0 932.4 -1.4 32
2019-06-16 15:00:00 24.8 17 Sudeste 32 Sudeste 0 933.1 -1.1 30
2019-06-16 14:00:00 24.6 17 Sudeste 29 Sudeste 0 933.6 -0.8 31
2019-06-16 13:00:00 22.5 19 Sudeste 30 Sudeste 0 933.8 -0.4 40
2019-06-16 12:00:00 21.6 15 Sudeste 26 Sudeste 0 934.2 0.2 46
2019-06-16 11:00:00 19.7 14 Sudeste 27 Sudeste 0 934.4 0.7 54
2019-06-16 10:00:00 19.1 11 Este 24 Sudeste 0 934.2 1 50
2019-06-16 09:00:00 16.3 8 Sudeste 15 Sudeste 0 934 1.3 57
2019-06-16 08:00:00 12.2 3 Noroeste 9 Oeste 0 933.7 0.7 60
2019-06-16 07:00:00 9.9 5 Noroeste 11 Noroeste 0 933.2 0.2 64
2019-06-16 06:00:00 10 8 Noroeste 10 Noroeste 0 932.7 -0.5 65
2019-06-16 05:00:00 11.2 6 Oeste 10 Norte 0 933 -0.5 60
2019-06-16 04:00:00 12.5 7 Noroeste 15 Noroeste 0 933 -0.5 59
2019-06-16 03:00:00 12.8 10 Noroeste 16 Noroeste 0 933.2 0 59
2019-06-16 02:00:00 13.1 11 Noroeste 15 Noroeste 0 933.5 0.9 59
2019-06-16 01:00:00 14.5 10 Noroeste 16 Noroeste 0 933.5 2.2 54
2019-06-16 00:00:00 15.8 11 Noroeste 15 Noroeste 0 933.2 2.3 49
2019-06-15 23:00:00 18.6 6 Sur 14 Sur 0 932.6 2.2 38
2019-06-15 22:00:00 21.1 10 Sudoeste 14 Oeste 0 931.3 1 20
2019-06-15 21:00:00 24.9 12 Oeste 23 Oeste 0 930.9 0.4 14
2019-06-15 20:00:00 26.4 13 Oeste 22 Sudoeste 0 930.4 -0.3 13
2019-06-15 19:00:00 27 9 Sudoeste 26 Sudoeste 0 930.3 -0.5 13
2019-06-15 18:00:00 26.8 17 Oeste 43 Oeste 0 930.5 -0.7 12
2019-06-15 17:00:00 26.4 17 Sudoeste 36 Sudoeste 0 930.7 -0.8 14
2019-06-15 16:00:00 25.9 14 Oeste 31 Oeste 0 930.8 -1 14
2019-06-15 15:00:00 25.3 16 Sudoeste 31 Oeste 0 931.2 -0.9 17
2019-06-15 14:00:00 24.3 14 Oeste 31 Oeste 0 931.5 -0.8 20
2019-06-15 13:00:00 23 15 Sudoeste 27 Oeste 0 931.8 -0.3 24
2019-06-15 12:00:00 21.2 16 Oeste 29 Noroeste 0 932.1 0.6 28
2019-06-15 11:00:00 19.4 21 Noroeste 31 Noroeste 0 932.3 1.3 29
2019-06-15 10:00:00 18.1 17 Noroeste 27 Noroeste 0 932.1 1.6 32
2019-06-15 09:00:00 16.7 14 Noroeste 22 Noroeste 0 931.5 1.2 36
2019-06-15 08:00:00 13.9 14 Noroeste 21 Noroeste 0 931 0.9 44
2019-06-15 07:00:00 11.4 14 Noroeste 22 Noroeste 0 930.5 0.5 50
2019-06-15 06:00:00 11.5 13 Noroeste 18 Noroeste 0 930.3 0.4 49
2019-06-15 05:00:00 12.7 13 Noroeste 21 Noroeste 0 930.1 0.3 44
2019-06-15 04:00:00 13.7 11 Noroeste 18 Noroeste 0 930 0.6 39
2019-06-15 03:00:00 14.8 9 Norte 18 Oeste 0 929.9 1.1 36
2019-06-15 02:00:00 16.4 12 Noroeste 26 Noroeste 0 929.8 1.5 33
2019-06-15 01:00:00 16 10 Oeste 15 Oeste 0 929.4 1.9 38
2019-06-15 00:00:00 17.7 10 Oeste 20 Oeste 0 928.8 1.9 32
2019-06-14 23:00:00 19.1 14 Sudoeste 18 Sudoeste 0 928.3 2.1 27
2019-06-14 22:00:00 21.4 15 Oeste 28 Oeste 0 927.5 1.6 22
2019-06-14 21:00:00 24.7 17 Oeste 36 Oeste 0 926.9 0.9 16
2019-06-14 20:00:00 26.2 23 Oeste 42 Oeste 0 926.2 0.4 17
2019-06-14 19:00:00 27.2 22 Oeste 41 Oeste 0 925.9 -0.3 16
2019-06-14 18:00:00 27.4 23 Sudoeste 42 Oeste 0 926 -0.2 19
2019-06-14 17:00:00 27.3 21 Sudoeste 47 Oeste 0 925.8 -0.6 21
2019-06-14 16:00:00 26.9 24 Oeste 41 Oeste 0 926.2 -0.1 20
2019-06-14 15:00:00 26 21 Sudoeste 40 Oeste 0 926.2 -0.3 22
2019-06-14 14:00:00 25.1 22 Oeste 36 Sudoeste 0 926.4 0.3 28
2019-06-14 13:00:00 23.2 12 Sudoeste 32 Oeste 0 926.3 1.3 38
2019-06-14 12:00:00 20.6 9 Noroeste 21 Oeste 0 926.5 1.2 54
2019-06-14 11:00:00 17.1 10 Sudoeste 30 Noroeste 0 926.1 0.2 64
2019-06-14 10:00:00 13.8 17 Noroeste 31 Oeste 0.4 925 0.5 77
2019-06-14 09:00:00 13.3 20 Oeste 30 Oeste 0.6 925.3 1.4 82
2019-06-14 08:00:00 14.4 9 Sudoeste 18 Oeste 0 925.9 1.5 83
2019-06-14 07:00:00 13.6 6 Norte 20 Noroeste 0 924.5 0.4 83
2019-06-14 06:00:00 12.8 12 Noroeste 15 Noroeste 0 923.9 -1.1 84
2019-06-14 05:00:00 12.5 0 Calma 14 Norte 0 924.4 -1 83
2019-06-14 04:00:00 12.8 7 Noroeste 14 Oeste 0 924.1 -2.5 81
2019-06-14 03:00:00 13.3 8 Oeste 16 Oeste 0 925 -1.5 82
2019-06-14 02:00:00 12.8 5 Noroeste 9 Noroeste 0 925.4 -0.6 82
2019-06-14 01:00:00 13.6 6 Sur 13 Sudeste 0 926.6 1.3 79
2019-06-14 00:00:00 14.3 10 Sur 19 Sudeste 0 926.5 1.3 77
2019-06-13 23:00:00 15.2 13 Sudeste 21 Este 0 926 1.3 73
2019-06-13 22:00:00 16.7 13 Este 23 Este 0 925.3 0.4 68
2019-06-13 21:00:00 18.6 14 Sudeste 24 Sudeste 0 925.2 0 59
2019-06-13 20:00:00 20.5 15 Sudeste 26 Este 0 924.7 -0.5 51
2019-06-13 19:00:00 21 15 Sudeste 31 Sudeste 0 924.9 -0.9 50
2019-06-13 18:00:00 20.3 21 Sudeste 35 Sudeste 0 925.2 -0.7 55
2019-06-13 17:00:00 22.3 22 Sudeste 34 Sudeste 0 925.2 -1.5 47
2019-06-13 16:00:00 21.7 14 Este 35 Sudeste 0 925.8 -1.2 47
2019-06-13 15:00:00 21.6 21 Sudeste 33 Sudeste 0 925.9 -1.6 47
2019-06-13 14:00:00 19.6 16 Sudeste 27 Sudeste 0 926.7 -1.2 53
2019-06-13 13:00:00 18.8 18 Este 28 Sudeste 0 927 -0.8 57
2019-06-13 12:00:00 17.6 14 Sudeste 28 Sudeste 0 927.5 0.1 66
2019-06-13 11:00:00 17.2 12 Sudeste 24 Sudeste 0 927.9 1 69
2019-06-13 10:00:00 16.2 15 Sudeste 22 Sudeste 0 927.8 0.9 73
2019-06-13 09:00:00 14.8 15 Sudeste 23 Sudeste 0 927.4 0.6 82
2019-06-13 08:00:00 14.1 8 Sudeste 12 Sudeste 0 926.9 0.3 86
2019-06-13 07:00:00 13.2 7 Sudeste 16 Este 0 926.9 0 90
2019-06-13 06:00:00 13.4 12 Sudeste 16 Sudeste 0 926.8 -0.5 87
2019-06-13 05:00:00 13.4 8 Sudeste 15 Este 0 926.6 -1 88
2019-06-13 04:00:00 13.7 11 Sudeste 16 Sudeste 0 926.9 -0.9 82
2019-06-13 03:00:00 13.7 12 Sudeste 18 Sudeste 0 927.3 -0.7 80
2019-06-13 02:00:00 13.8 11 Sudeste 21 Este 0 927.6 -0.3 79
2019-06-13 01:00:00 13.7 14 Este 24 Este 0 927.8 0.6 80
2019-06-13 00:00:00 13.5 16 Este 24 Sudeste 0 928 1.4 78
2019-06-12 23:00:00 13.1 9 Sudeste 21 Este 0 927.9 1.8 64
2019-06-12 22:00:00 14.2 10 Este 24 Sudeste 0 927.2 1.7 43
2019-06-12 21:00:00 16.2 18 Sudeste 32 Este 0 926.6 0.7 51
2019-06-12 20:00:00 18 24 Este 35 Este 0 926.1 0.1 42
2019-06-12 19:00:00 19.9 24 Este 37 Sudeste 0 925.5 -0.7 42
2019-06-12 18:00:00 21 23 Sudeste 41 Sudeste 0 925.9 -1 39
2019-06-12 17:00:00 22.4 17 Sudeste 39 Sudeste 0 926 -1.5 31
2019-06-12 16:00:00 23 10 Sudoeste 27 Sur 0 926.2 -1.8 28
2019-06-12 15:00:00 21.2 14 Sudeste 29 Sudeste 0 926.9 -1.6 32
2019-06-12 14:00:00 20.8 11 Sudeste 28 Sudeste 0 927.5 -1.4 31
2019-06-12 13:00:00 19.8 13 Sudeste 26 Sudeste 0 928 -1 30
2019-06-12 12:00:00 18 10 Sudeste 21 Sudeste 0 928.5 -0.5 42
2019-06-12 11:00:00 16.2 8 Sudeste 18 Sudeste 0 928.9 0.4 47
2019-06-12 10:00:00 14.3 5 Sur 13 Sudeste 0 929 0.8 59
2019-06-12 09:00:00 11.5 4 Norte 9 Noroeste 0 929 1.5 57
2019-06-12 08:00:00 5.8 9 Norte 11 Noroeste 0 928.5 1.2 73
2019-06-12 07:00:00 4.1 2 Sudoeste 10 Noroeste 0 928.2 0.7 76
2019-06-12 06:00:00 4.7 9 Noroeste 12 Noroeste 0 927.5 -0.2 75
2019-06-12 05:00:00 5 4 Oeste 14 Noroeste 0 927.3 -1 70
2019-06-12 04:00:00 5.3 4 Noroeste 12 Noroeste 0 927.5 -0.9 68
2019-06-12 03:00:00 6.1 8 Noroeste 12 Norte 0 927.7 -0.5 65
2019-06-12 02:00:00 6.2 9 Noroeste 11 Noroeste 0 928.3 0.2 62
2019-06-12 01:00:00 8 6 Noroeste 12 Noroeste 0 928.4 1.1 58
2019-06-12 00:00:00 10.2 5 Oeste 15 Norte 0 928.2 1.3 54
2019-06-11 23:00:00 12.2 6 Nordeste 16 Nordeste 0 928.1 1.6 43
2019-06-11 22:00:00 12.8 6 Norte 19 Norte 0 927.3 1.3 49
2019-06-11 21:00:00 15.5 16 Norte 26 Norte 0 926.9 1.2 39
2019-06-11 20:00:00 16.8 12 Nordeste 23 Norte 0 926.5 1.5 35
2019-06-11 19:00:00 16 12 Norte 33 Norte 0 926 1.7 39
2019-06-11 18:00:00 16 23 Norte 45 Norte 0 925.7 2.1 40
2019-06-11 17:00:00 17.6 33 Norte 48 Norte 0 925 1.7 39
2019-06-11 16:00:00 19.3 26 Norte 38 Norte 0 924.3 0.8 39
2019-06-11 15:00:00 21.1 16 Nordeste 30 Norte 0 923.6 -0.3 42
2019-06-11 14:00:00 22.6 19 Oeste 31 Sudoeste 0 923.3 -0.6 22
2019-06-11 13:00:00 22.2 8 Sudoeste 21 Sudeste 0 923.5 -0.7 32
2019-06-11 12:00:00 20.4 7 Sudeste 22 Sur 0 923.9 -0.4 41
2019-06-11 11:00:00 19.2 14 Sudeste 25 Sudeste 0 923.9 -0.5 52
2019-06-11 10:00:00 17 10 Sudeste 18 Sudeste 0 924.2 -0.1 62
2019-06-11 09:00:00 14.9 3 Nordeste 8 Norte 0 924.3 0 72
2019-06-11 08:00:00 11.3 3 Noroeste 6 Noroeste 0 924.4 -0.1 87
2019-06-11 07:00:00 9.5 4 Noroeste 8 Noroeste 0 924.3 -0.7 87
2019-06-11 06:00:00 10.7 5 Noroeste 12 Noroeste 0 924.3 -1.2 89
2019-06-11 05:00:00 11.6 10 Noroeste 12 Noroeste 0 924.5 -1.7 86
2019-06-11 04:00:00 12.7 5 Norte 15 Norte 0 925 -1.5 82
2019-06-11 03:00:00 13.2 9 Norte 15 Noroeste 0 925.5 -1.2 80
2019-06-11 02:00:00 12.8 9 Noroeste 12 Noroeste 0 926.2 -0.6 81
2019-06-11 01:00:00 13.4 8 Noroeste 12 Noroeste 0 926.5 0.6 76
2019-06-11 00:00:00 14.9 8 Noroeste 14 Noroeste 0 926.7 1.4 71
2019-06-10 23:00:00 17.3 7 Oeste 14 Norte 0 926.8 1.5 62
2019-06-10 22:00:00 21.5 8 Oeste 21 Oeste 0 925.9 0.6 22
2019-06-10 21:00:00 24.4 15 Oeste 29 Oeste 0 925.3 -0.4 19
2019-06-10 20:00:00 25.8 19 Oeste 35 Oeste 0 925.3 -0.5 17
2019-06-10 19:00:00 26.9 19 Oeste 39 Oeste 0 925.3 -0.9 16
2019-06-10 18:00:00 26.4 23 Sudoeste 39 Sudoeste 0 925.7 -1.1 16
2019-06-10 17:00:00 27.6 17 Sudoeste 33 Oeste 0 925.8 -1.6 14
2019-06-10 16:00:00 27.7 13 Oeste 33 Sudoeste 0 926.2 -1.7 15
2019-06-10 15:00:00 27.1 16 Oeste 31 Oeste 0 926.8 -1.5 14
2019-06-10 14:00:00 25.9 8 Sur 26 Oeste 0 927.4 -1.1 17
2019-06-10 13:00:00 24.9 8 Sur 21 Sur 0 927.9 -0.9 20
2019-06-10 12:00:00 23.9 9 Sur 16 Sur 0 928.3 -0.6 24
2019-06-10 11:00:00 21.5 6 Sur 10 Sur 0 928.5 0 29
2019-06-10 10:00:00 19 5 Sur 14 Nordeste 0 928.8 0.6 29
2019-06-10 09:00:00 17.2 7 Nordeste 12 Nordeste 0 928.9 1 32
2019-06-10 08:00:00 11 5 Oeste 12 Norte 0 928.5 0.4 48
2019-06-10 07:00:00 10.3 5 Nordeste 7 Este 0 928.2 -0.1 46
2019-06-10 06:00:00 12.2 0 Calma 5 Nordeste 0 927.9 -0.4 39
2019-06-10 05:00:00 14.5 2 Norte 7 Noroeste 0 928.1 -0.4 33
2019-06-10 04:00:00 15.9 4 Norte 19 Noroeste 0 928.3 -0.2 28
2019-06-10 03:00:00 18.2 13 Noroeste 24 Noroeste 0 928.3 -0.2 23
2019-06-10 02:00:00 18 7 Noroeste 12 Noroeste 0 928.5 0.2 24
2019-06-10 01:00:00 20.4 12 Noroeste 23 Noroeste 0 928.5 0.7 23
2019-06-10 00:00:00 19.8 6 Oeste 18 Oeste 0 928.5 1.2 25
2019-06-09 23:00:00 20.2 11 Oeste 17 Oeste 0 928.3 1.1 26
2019-06-09 22:00:00 22.6 11 Oeste 23 Oeste 0 927.8 0.9 22
2019-06-09 21:00:00 25.6 13 Oeste 31 Oeste 0 927.3 0.3 18
2019-06-09 20:00:00 27.4 18 Oeste 35 Oeste 0 927.2 0 16
2019-06-09 19:00:00 28.2 20 Oeste 37 Oeste 0 926.9 -0.9 14
2019-06-09 18:00:00 28.9 21 Oeste 36 Oeste 0 927 -1.6 14
2019-06-09 17:00:00 29.2 18 Oeste 32 Sur 0 927.2 -2 14
2019-06-09 16:00:00 27.4 19 Sur 32 Sur 0 927.8 -2.2 25
2019-06-09 15:00:00 25.5 17 Sur 27 Sur 0 928.6 -1.9 30
2019-06-09 14:00:00 23 6 Sur 15 Oeste 0 929.2 -1.6 34
2019-06-09 13:00:00 20 9 Oeste 14 Oeste 0 930 -0.9 40
2019-06-09 12:00:00 19.1 3 Sudoeste 12 Sur 0 930.5 -0.3 38
2019-06-09 11:00:00 17.8 5 Noroeste 14 Norte 0 930.8 -0.1 38
2019-06-09 10:00:00 15.7 5 Noroeste 9 Noroeste 0 930.9 0.5 48
2019-06-09 09:00:00 14.5 4 Noroeste 9 Norte 0 930.8 -0.4 54
2019-06-09 08:00:00 12.7 6 Noroeste 13 Noroeste 0 930.9 -0.4 57
2019-06-09 07:00:00 11.5 7 Noroeste 14 Norte 0 930.4 -1 67
2019-06-09 06:00:00 11.7 4 Sudoeste 7 Oeste 0 931.2 -1 70
2019-06-09 05:00:00 11.9 5 Noroeste 13 Oeste 0 931.3 -1.4 67
2019-06-09 04:00:00 12.1 6 Noroeste 9 Noroeste 0 931.4 -1.5 67
2019-06-09 03:00:00 12.8 3 Oeste 6 Sudoeste 0 932.2 -0.8 65
2019-06-09 02:00:00 13.5 3 Sudoeste 7 Oeste 0 932.7 -0.8 63
2019-06-09 01:00:00 14.2 3 Noroeste 12 Oeste 0 932.9 -0.4 62
2019-06-09 00:00:00 15.5 5 Este 15 Este 0 933 -0.5 50
2019-06-08 23:00:00 16 10 Este 21 Este 0 933.5 0.3 50
2019-06-08 22:00:00 16.4 9 Este 20 Este 0 933.3 -0.1 48
2019-06-08 21:00:00 17.2 8 Este 30 Sudeste 0 933.5 0 47
2019-06-08 20:00:00 18.1 20 Sudeste 32 Este 0 933.2 -0.6 43
2019-06-08 19:00:00 18.6 19 Este 31 Este 0 933.4 -0.7 43
2019-06-08 18:00:00 20 17 Este 36 Este 0 933.5 -1.2 41
2019-06-08 17:00:00 21 21 Este 35 Sudeste 0 933.8 -1.4 39
2019-06-08 16:00:00 20.9 24 Este 39 Sudeste 0 934.1 -1.3 40
2019-06-08 15:00:00 20.9 25 Sudeste 41 Sudeste 0 934.7 -0.8 42
2019-06-08 14:00:00 21.3 24 Sudeste 43 Sudeste 0 935.2 -0.3 42
2019-06-08 13:00:00 19.6 25 Este 40 Este 0 935.4 0.1 48
2019-06-08 12:00:00 18.4 22 Este 42 Este 0 935.5 0.5 51
2019-06-08 11:00:00 18.3 24 Sudeste 39 Sudeste 0 935.5 0.9 54
2019-06-08 10:00:00 16.6 21 Este 37 Sudeste 0 935.3 1.2 62
2019-06-08 09:00:00 16.1 21 Este 35 Este 0 935 1.2 56
2019-06-08 08:00:00 15.3 15 Este 27 Este 0 934.6 0.9 42
2019-06-08 07:00:00 12.3 7 Nordeste 11 Nordeste 0 934.1 0.6 57
2019-06-08 06:00:00 13.4 3 Nordeste 20 Este 0 933.8 0.3 56
2019-06-08 05:00:00 14.4 10 Este 19 Este 0 933.7 0 50
2019-06-08 04:00:00 11.5 4 Este 15 Noroeste 0 933.5 0 55
2019-06-08 03:00:00 11.2 9 Noroeste 14 Noroeste 0 933.5 0.5 47
2019-06-08 02:00:00 10.2 8 Noroeste 13 Noroeste 0 933.7 1.3 35
2019-06-08 01:00:00 10.6 8 Noroeste 19 Sudeste 0 933.5 2 33
2019-06-08 00:00:00 12.3 6 Oeste 12 Noroeste 0 933 2.1 29
2019-06-07 23:00:00 14.8 9 Norte 15 Noroeste 0 932.4 2 25
2019-06-07 22:00:00 17.4 13 Noroeste 17 Noroeste 0 931.5 1.5 19
2019-06-07 21:00:00 21.6 13 Noroeste 27 Oeste 0 930.9 1 14
2019-06-07 20:00:00 23.3 18 Oeste 29 Oeste 0 930.4 0.6 13
2019-06-07 19:00:00 24 15 Oeste 35 Oeste 0 930 0.2 12
2019-06-07 18:00:00 23.7 22 Oeste 38 Oeste 0 929.9 0.4 12
2019-06-07 17:00:00 23.4 22 Oeste 41 Oeste 0 929.8 0.3 15
2019-06-07 16:00:00 23.1 21 Oeste 44 Oeste 0 929.8 0.5 18
2019-06-07 15:00:00 22 24 Sudoeste 40 Sudoeste 0 929.5 0.9 25
2019-06-07 14:00:00 21 24 Oeste 44 Oeste 0 929.5 1.5 29
2019-06-07 13:00:00 20.4 26 Oeste 45 Oeste 0 929.3 1.8 34
2019-06-07 12:00:00 19.6 29 Oeste 49 Oeste 0 928.6 1.6 42
2019-06-07 11:00:00 18.5 29 Oeste 45 Oeste 0 928 1.5 47
2019-06-07 10:00:00 16.9 22 Oeste 37 Oeste 0 927.5 1.6 49
2019-06-07 09:00:00 14.1 17 Oeste 26 Oeste 0 927 1.6 50
2019-06-07 08:00:00 11.1 3 Noroeste 11 Oeste 0 926.5 1.4 67
2019-06-07 07:00:00 8.3 5 Norte 10 Norte 0 925.9 0.7 87
2019-06-07 06:00:00 8.2 4 Nordeste 8 Norte 0 925.4 0.3 91
2019-06-07 05:00:00 8.4 5 Sudoeste 8 Norte 0 925.1 -0.1 89
2019-06-07 04:00:00 9.4 6 Norte 8 Norte 0 925.2 -0.3 87
2019-06-07 03:00:00 10.9 5 Norte 10 Noroeste 0 925.1 -0.5 88
2019-06-07 02:00:00 11.1 8 Noroeste 10 Noroeste 0 925.2 -0.3 84
2019-06-07 01:00:00 11.9 7 Noroeste 9 Noroeste 0 925.5 0.6 81
2019-06-07 00:00:00 14.3 4 Este 10 Sudeste 0 925.6 1.1 78
2019-06-06 23:00:00 15.2 4 Sudeste 16 Sudeste 0 925.5 1.2 70
2019-06-06 22:00:00 16.5 12 Sudeste 27 Sudeste 0 924.9 0.7 62
2019-06-06 21:00:00 18.4 19 Sudeste 33 Sudeste 0 924.5 -0.1 51
2019-06-06 20:00:00 19.9 24 Este 36 Este 0 924.3 -0.7 50
2019-06-06 19:00:00 21.8 23 Sudeste 41 Sudeste 0 924.2 -1.3 43
2019-06-06 18:00:00 23 25 Sudeste 43 Sudeste 0 924.6 -1.5 34
2019-06-06 17:00:00 23.7 24 Sudeste 44 Sudeste 0 925 -1.8 31
2019-06-06 16:00:00 24.1 20 Sudeste 46 Este 0 925.5 -2 30
2019-06-06 15:00:00 25 12 Sur 33 Sur 0 926.1 -1.6 21
2019-06-06 14:00:00 23.4 19 Sudoeste 32 Sudoeste 0 926.8 -1.2 19
2019-06-06 13:00:00 21.9 17 Sudeste 28 Sudoeste 0 927.5 -0.8 21
2019-06-06 12:00:00 20.9 11 Sur 23 Sudeste 0 927.7 -0.4 22
2019-06-06 11:00:00 19.4 12 Sudeste 20 Sudeste 0 928 0 26
2019-06-06 10:00:00 17.4 4 Sudeste 9 Sudeste 0 928.3 0.3 32
2019-06-06 09:00:00 13.8 2 Nordeste 6 Noroeste 0 928.1 0.2 47
2019-06-06 08:00:00 7.7 4 Noroeste 8 Noroeste 0 928 0.4 70
2019-06-06 07:00:00 5.2 6 Noroeste 8 Noroeste 0 928 0.3 71
2019-06-06 06:00:00 6 5 Noroeste 12 Norte 0 927.9 0.2 63
2019-06-06 05:00:00 6.2 5 Noroeste 12 Noroeste 0 927.6 0 56
2019-06-06 04:00:00 6.6 8 Noroeste 12 Oeste 0 927.7 0.2 52
2019-06-06 03:00:00 7.1 8 Noroeste 12 Oeste 0 927.7 0.2 51
2019-06-06 02:00:00 8.6 5 Noroeste 12 Noroeste 0 927.6 0.6 45
2019-06-06 01:00:00 10.3 8 Noroeste 9 Norte 0 927.5 1.2 41
2019-06-06 00:00:00 12.5 4 Nordeste 14 Oeste 0 927.5 1.7 34
2019-06-05 23:00:00 14.2 10 Oeste 17 Oeste 0 927 1.7 30
2019-06-05 22:00:00 16.8 12 Oeste 25 Oeste 0 926.3 1.5 25
2019-06-05 21:00:00 19.5 17 Oeste 30 Oeste 0 925.8 1 21
2019-06-05 20:00:00 20.5 21 Oeste 34 Noroeste 0 925.3 0.8 18
2019-06-05 19:00:00 20.2 24 Noroeste 42 Oeste 0 924.8 0.3 18
2019-06-05 18:00:00 21.4 22 Oeste 42 Noroeste 0 924.8 0.6 15
2019-06-05 17:00:00 22.2 26 Noroeste 46 Noroeste 0 924.5 0.2 15
2019-06-05 16:00:00 22.4 27 Oeste 52 Noroeste 0 924.5 0.3 15
2019-06-05 15:00:00 21.5 31 Oeste 57 Oeste 0 924.2 0.2 17
2019-06-05 14:00:00 20.6 31 Noroeste 59 Noroeste 0 924.3 0.6 23
2019-06-05 13:00:00 19.2 33 Noroeste 57 Noroeste 0 924.2 1 26
2019-06-05 12:00:00 18.2 33 Oeste 54 Oeste 0 924 1.5 30
2019-06-05 11:00:00 17.1 36 Oeste 59 Sudoeste 0 923.7 1.4 34
2019-06-05 10:00:00 17.2 37 Oeste 59 Oeste 0 923.2 1.7 40
2019-06-05 09:00:00 17.3 28 Oeste 44 Oeste 0 922.5 1.1 50
2019-06-05 08:00:00 16.2 20 Oeste 29 Oeste 0 922.3 0.8 59
2019-06-05 07:00:00 13.7 2 Noroeste 13 Noroeste 0 921.5 -0.1 65
2019-06-05 06:00:00 13.6 4 Sudoeste 9 Noroeste 0 921.4 -0.5 63
2019-06-05 05:00:00 11.8 4 Norte 12 Oeste 0 921.5 -0.9 67
2019-06-05 04:00:00 12.2 6 Norte 12 Oeste 0 921.6 -1.3 67
2019-06-05 03:00:00 14.2 7 Norte 14 Oeste 0 921.9 -1.3 59
2019-06-05 02:00:00 15.3 7 Noroeste 11 Noroeste 0 922.4 -0.7 56
2019-06-05 01:00:00 16.9 3 Noroeste 13 Norte 0 922.9 0.2 49
2019-06-05 00:00:00 18.2 7 Norte 14 Noroeste 0 923.2 0.8 48
2019-06-04 23:00:00 19.7 6 Noroeste 14 Este 0 923.1 0.6 48
2019-06-04 22:00:00 22.1 9 Este 24 Sudeste 0 922.7 0.2 40
2019-06-04 21:00:00 24.6 15 Sudeste 33 Sudeste 0 922.4 -0.6 35
2019-06-04 20:00:00 27.4 23 Sudeste 39 Sudeste 0 922.5 -1.1 31
2019-06-04 19:00:00 29.6 25 Sudeste 39 Sudeste 0 922.5 -1.7 25
2019-06-04 18:00:00 32.2 21 Sudoeste 37 Sudoeste 0 923 -2.1 10
2019-06-04 17:00:00 32.1 16 Sudoeste 41 Sur 0 923.6 -2.1 11
2019-06-04 16:00:00 31.7 24 Sudoeste 44 Sur 0 924.2 -2.2 12
2019-06-04 15:00:00 31 19 Sudoeste 33 Sudoeste 0 925.1 -1.9 14
2019-06-04 14:00:00 30.9 14 Sudoeste 29 Sudoeste 0 925.7 -1.5 15
2019-06-04 13:00:00 29.1 9 Oeste 24 Oeste 0 926.4 -1.1 20
2019-06-04 12:00:00 27.5 10 Sudoeste 19 Sur 0 927 -0.6 22
2019-06-04 11:00:00 25.6 10 Sudoeste 17 Sur 0 927.2 -0.2 25
2019-06-04 10:00:00 23 6 Sur 12 Sur 0 927.5 0.4 30
2019-06-04 09:00:00 18.2 3 Sur 6 Sudoeste 0 927.6 0.5 45
2019-06-04 08:00:00 12.9 3 Noroeste 9 Oeste 0 927.4 0.1 60
2019-06-04 07:00:00 10.9 7 Noroeste 12 Noroeste 0 927.1 -0.6 63
2019-06-04 06:00:00 11.6 9 Noroeste 12 Noroeste 0 927.1 -1.2 61
2019-06-04 05:00:00 12.5 5 Norte 12 Noroeste 0 927.3 -1.6 57
2019-06-04 04:00:00 13.3 7 Noroeste 13 Noroeste 0 927.7 -1.9 54
2019-06-04 03:00:00 14.2 8 Noroeste 13 Noroeste 0 928.3 -1.6 53
2019-06-04 02:00:00 15.8 6 Norte 13 Noroeste 0 928.9 -1.2 49
2019-06-04 01:00:00 16.7 9 Noroeste 14 Noroeste 0 929.6 0 48
2019-06-04 00:00:00 17.4 10 Noroeste 16 Noroeste 0 929.9 0.6 45
2019-06-03 23:00:00 18.3 10 Noroeste 14 Noroeste 0 930.1 1.3 43
2019-06-03 22:00:00 21.3 5 Norte 12 Nordeste 0 929.6 1.2 28
2019-06-03 21:00:00 24.5 9 Este 25 Sudeste 0 929.3 0.8 30
2019-06-03 20:00:00 25.8 20 Sudeste 37 Sudeste 0 928.8 0.1 33
2019-06-03 19:00:00 28.9 28 Sudeste 43 Sudeste 0 928.4 -1.2 28
2019-06-03 18:00:00 33.3 17 Sur 32 Sur 0 928.5 -1.9 12
2019-06-03 17:00:00 33.5 13 Sudoeste 28 Sur 0 928.7 -2.3 12
2019-06-03 16:00:00 32.9 13 Sudoeste 28 Sur 0 929.6 -1.9 13
2019-06-03 15:00:00 32.2 8 Sudoeste 23 Sudoeste 0 930.4 -1.3 14
2019-06-03 14:00:00 30.3 7 Sur 26 Sudeste 0 931 -0.9 16
2019-06-03 13:00:00 29.3 8 Sur 17 Sur 0 931.5 -0.5 18
2019-06-03 12:00:00 27.4 7 Sur 19 Sudeste 0 931.7 -0.2 19
2019-06-03 11:00:00 24.8 7 Sudeste 15 Sudeste 0 931.9 0 24
2019-06-03 10:00:00 22.1 6 Sudeste 9 Sudeste 0 932 0.2 27
2019-06-03 09:00:00 18.4 0 Calma 9 Noroeste 0 931.9 0.5 36
2019-06-03 08:00:00 12.3 4 Norte 10 Noroeste 0 931.9 -0.1 51
2019-06-03 07:00:00 10.5 5 Norte 14 Noroeste 0 931.8 0 55
2019-06-03 06:00:00 11.5 9 Noroeste 11 Noroeste 0 931.4 -0.8 51
2019-06-03 05:00:00 11.8 9 Oeste 13 Oeste 0 932 -0.6 49
2019-06-03 04:00:00 12.2 6 Noroeste 10 Noroeste 0 931.8 -1.2 52
2019-06-03 03:00:00 14 9 Noroeste 16 Noroeste 0 932.2 -0.8 47
2019-06-03 02:00:00 14.9 14 Noroeste 19 Noroeste 0 932.6 -0.3 45
2019-06-03 01:00:00 15.5 12 Noroeste 17 Noroeste 0 933 0.7 44
2019-06-03 00:00:00 16 10 Noroeste 15 Noroeste 0 933 1.2 42
2019-06-02 23:00:00 17.5 8 Noroeste 11 Noroeste 0 932.9 1.6 37
2019-06-02 22:00:00 20.6 3 Este 14 Sudeste 0 932.3 1.3 29
2019-06-02 21:00:00 23.4 9 Sudeste 27 Sudeste 0 931.8 0.8 26
2019-06-02 20:00:00 25.4 22 Sudeste 33 Este 0 931.3 0.2 24
2019-06-02 19:00:00 27.2 22 Sudeste 39 Sudeste 0 931 -0.6 23
2019-06-02 18:00:00 29.4 23 Sudeste 40 Sudeste 0 931 -1.1 21
2019-06-02 17:00:00 30.6 22 Sudeste 35 Sudeste 0 931.1 -1.8 17
2019-06-02 16:00:00 30.7 8 Este 25 Sudeste 0 931.6 -1.8 15
2019-06-02 15:00:00 30.1 10 Sudeste 22 Sudeste 0 932.1 -1.5 16
2019-06-02 14:00:00 28.8 7 Sur 21 Sur 0 932.9 -0.7 17
2019-06-02 13:00:00 27.5 8 Sur 21 Sur 0 933.4 -0.3 19
2019-06-02 12:00:00 25.9 8 Sudeste 17 Sudeste 0 933.6 -0.1 20
2019-06-02 11:00:00 24.2 5 Sudoeste 12 Sur 0 933.6 -0.2 19
2019-06-02 10:00:00 21.2 2 Sur 6 Norte 0 933.7 0 24
2019-06-02 09:00:00 16.4 4 Norte 8 Norte 0 933.7 0.1 38
2019-06-02 08:00:00 10.9 3 Noroeste 12 Noroeste 0 933.8 -0.1 53
2019-06-02 07:00:00 8.5 7 Noroeste 9 Noroeste 0 933.7 -0.4 57
2019-06-02 06:00:00 9 6 Noroeste 9 Noroeste 0 933.6 -0.9 58
2019-06-02 05:00:00 9.3 7 Noroeste 10 Noroeste 0 933.9 -0.9 60
2019-06-02 04:00:00 11.1 6 Norte 11 Noroeste 0 934.1 -1 54
2019-06-02 03:00:00 11.8 7 Noroeste 12 Norte 0 934.5 -0.6 52
2019-06-02 02:00:00 12.4 8 Norte 15 Norte 0 934.8 0 50
2019-06-02 01:00:00 14.1 9 Noroeste 11 Noroeste 0 935.1 1 43
2019-06-02 00:00:00 15.1 6 Noroeste 11 Oeste 0 935.1 1.3 40
2019-06-01 23:00:00 17.6 8 Este 14 Sudeste 0 934.8 1.5 32
2019-06-01 22:00:00 19.1 9 Este 18 Este 0 934.1 0.8 31
2019-06-01 21:00:00 22.4 9 Este 26 Este 0 933.8 0.6 26
2019-06-01 20:00:00 24.2 21 Este 33 Sudeste 0 933.3 -0.1 24
2019-06-01 19:00:00 26.4 18 Sudeste 33 Sudeste 0 933.3 -0.4 21
2019-06-01 18:00:00 27.5 23 Sudeste 37 Sudeste 0 933.2 -1 21
2019-06-01 17:00:00 28.6 21 Sudeste 33 Sudeste 0 933.4 -1.3 21
2019-06-01 16:00:00 29.1 23 Sudeste 38 Sudeste 0 933.7 -1.7 20
2019-06-01 15:00:00 28.6 18 Sur 33 Sudeste 0 934.2 -1.5 20
2019-06-01 14:00:00 28 12 Sur 26 Sudeste 0 934.7 -1.1 18
2019-06-01 13:00:00 26.8 10 Sudeste 19 Sudeste 0 935.4 -0.6 20
2019-06-01 12:00:00 25.7 10 Sudeste 19 Sudeste 0 935.7 -0.3 19
2019-06-01 11:00:00 23.5 6 Sur 9 Sur 0 935.8 -0.2 24
2019-06-01 10:00:00 21.2 2 Norte 10 Norte 0 936 0 34
2019-06-01 09:00:00 16.8 7 Noroeste 15 Noroeste 0 936 0.3 50
2019-06-01 08:00:00 12 10 Norte 15 Noroeste 0 936 0.2 64
2019-06-01 07:00:00 9.7 9 Norte 13 Noroeste 0 936 -0.1 71
2019-06-01 06:00:00 9.9 9 Norte 13 Norte 0 935.7 -0.6 72
2019-06-01 05:00:00 10.3 10 Noroeste 15 Norte 0 935.8 -1.1 71
2019-06-01 04:00:00 10.6 8 Noroeste 14 Noroeste 0 936.1 -1.1 71
2019-06-01 03:00:00 10.6 8 Noroeste 12 Noroeste 0 936.3 -0.9 71
2019-06-01 02:00:00 11.3 8 Noroeste 12 Noroeste 0 936.9 0 69
2019-06-01 01:00:00 12.3 7 Norte 11 Norte 0 937.2 0.9 62
2019-06-01 00:00:00 14.6 3 Norte 10 Este 0 937.2 1.5 51
2019-05-31 23:00:00 16.1 8 Este 17 Este 0 936.9 1.5 48
2019-05-31 22:00:00 17.4 11 Este 21 Este 0 936.3 1.1 44
2019-05-31 21:00:00 20.1 13 Este 25 Sudeste 0 935.7 0.7 40
2019-05-31 20:00:00 22.6 18 Sudeste 34 Sudeste 0 935.4 0.2 35
2019-05-31 19:00:00 24.5 21 Sudeste 35 Sudeste 0 935.2 -0.5 34
2019-05-31 18:00:00 26.3 22 Sudeste 39 Sudeste 0 935 -1 28
2019-05-31 17:00:00 27.5 15 Sudeste 29 Sudeste 0 935.2 -1.4 21
2019-05-31 16:00:00 27.8 13 Sudoeste 30 Sudeste 0 935.7 -1.4 20
2019-05-31 15:00:00 26.7 6 Este 23 Sudeste 0 936 -1.4 21
2019-05-31 14:00:00 25.9 6 Sur 25 Sudeste 0 936.6 -0.9 23
2019-05-31 13:00:00 25.2 12 Sudeste 19 Sudeste 0 937.1 -0.5 25
2019-05-31 12:00:00 23.5 9 Sudeste 18 Este 0 937.4 -0.1 26
2019-05-31 11:00:00 22.3 5 Sur 14 Sudeste 0 937.5 -0.1 27
2019-05-31 10:00:00 19.9 4 Sudeste 8 Sudeste 0 937.6 0.3 32
2019-05-31 09:00:00 16.2 3 Norte 6 Norte 0 937.5 0.4 49
2019-05-31 08:00:00 10.5 4 Noroeste 11 Noroeste 0 937.6 0.4 67
2019-05-31 07:00:00 7.7 7 Noroeste 12 Norte 0 937.3 0 75
2019-05-31 06:00:00 8.2 6 Norte 12 Noroeste 0 937.1 -0.8 72
2019-05-31 05:00:00 8.9 7 Norte 10 Norte 0 937.2 -0.9 69
2019-05-31 04:00:00 10.4 8 Norte 14 Norte 0 937.3 -1.1 66
2019-05-31 03:00:00 9.9 9 Norte 13 Norte 0 937.9 -0.7 68
2019-05-31 02:00:00 11.4 5 Noroeste 12 Norte 0 938.1 -0.1 67
2019-05-31 01:00:00 12.4 6 Norte 8 Norte 0 938.4 1.3 60
2019-05-31 00:00:00 14.1 5 Norte 11 Norte 0 938.6 2.2 57
2019-05-30 23:00:00 15.5 6 Noroeste 9 Este 0 938.2 2.4 49
2019-05-30 22:00:00 18.5 5 Este 19 Sudeste 0 937.1 1.4 42
2019-05-30 21:00:00 21.1 12 Este 33 Sudeste 0 936.4 0.8 34
2019-05-30 20:00:00 23.4 21 Sudeste 34 Sudeste 0 935.8 -0.2 29
2019-05-30 19:00:00 25.1 22 Sudeste 35 Sudeste 0 935.7 -0.7 27
2019-05-30 18:00:00 26.9 19 Sudeste 35 Sudeste 0 935.6 -1.3 20
2019-05-30 17:00:00 27.3 7 Sur 24 Sudeste 0 936 -1.3 19
2019-05-30 16:00:00 26.3 8 Sur 23 Sudeste 0 936.4 -1.3 19
2019-05-30 15:00:00 25 6 Sudeste 29 Sudeste 0 936.9 -1.1 21
2019-05-30 14:00:00 23.4 6 Sur 18 Sudeste 0 937.3 -0.7 25
2019-05-30 13:00:00 22.6 7 Sudoeste 17 Sur 0 937.7 -0.3 27
2019-05-30 12:00:00 21.1 7 Sur 16 Sudeste 0 938 0.2 29
2019-05-30 11:00:00 19.8 6 Sudeste 14 Sur 0 938 0.4 32
2019-05-30 10:00:00 18.4 3 Sur 10 Norte 0 938 0.8 35
2019-05-30 09:00:00 15.1 7 Norte 14 Noroeste 0 937.8 1 51
2019-05-30 08:00:00 8.9 6 Norte 10 Norte 0 937.6 1 69
2019-05-30 07:00:00 5.9 9 Norte 10 Norte 0 937.2 0.3 76
2019-05-30 06:00:00 6.2 5 Sudoeste 8 Norte 0 936.8 -0.1 75
2019-05-30 05:00:00 6.2 7 Noroeste 10 Noroeste 0 936.6 -0.6 70
2019-05-30 04:00:00 7.1 9 Noroeste 12 Norte 0 936.9 -0.1 70
2019-05-30 03:00:00 8.1 7 Norte 9 Norte 0 936.9 0.2 66
2019-05-30 02:00:00 9.3 3 Norte 11 Norte 0 937.2 1.1 62
2019-05-30 01:00:00 10.8 4 Noroeste 13 Noroeste 0 937 2.2 56
2019-05-30 00:00:00 13.5 4 Este 12 Sudeste 0 936.7 2.7 48
2019-05-29 23:00:00 14 8 Sudeste 14 Este 0 936.1 2.9 46
2019-05-29 22:00:00 16.6 11 Sudeste 17 Este 0 934.8 2.1 39
2019-05-29 21:00:00 21 11 Este 34 Nordeste 0 934 1.2 27
2019-05-29 20:00:00 23.6 22 Norte 48 Norte 0 933.2 0.1 20
2019-05-29 19:00:00 24.7 25 Norte 42 Norte 0 932.7 -0.8 17
2019-05-29 18:00:00 25 26 Norte 43 Norte 0 932.8 -0.8 14
2019-05-29 17:00:00 25.5 21 Norte 38 Noroeste 0 933.1 -0.8 15
2019-05-29 16:00:00 24.4 21 Norte 36 Norte 0 933.5 -0.5 19
2019-05-29 15:00:00 22.3 20 Noroeste 39 Norte 0 933.6 -0.3 23
2019-05-29 14:00:00 21.4 8 Nordeste 30 Norte 0 933.9 -0.1 23
2019-05-29 13:00:00 20.6 10 Norte 31 Norte 0 934 0.3 25
2019-05-29 12:00:00 18.2 11 Noroeste 34 Norte 0 933.9 0.3 27
2019-05-29 11:00:00 16.4 27 Norte 44 Noroeste 0 934 0.8 33
2019-05-29 10:00:00 16.2 23 Norte 40 Norte 0 933.7 1.2 32
2019-05-29 09:00:00 14 21 Norte 37 Norte 0 933.6 1.5 37
2019-05-29 08:00:00 10.8 26 Norte 49 Norte 0 933.2 0.8 48
2019-05-29 07:00:00 9.6 32 Norte 53 Norte 0 932.5 0.4 52
2019-05-29 06:00:00 9.6 33 Norte 53 Norte 0 932.1 -0.1 53
2019-05-29 05:00:00 9.6 13 Norte 35 Norte 0 932.4 0.5 55
2019-05-29 04:00:00 10.2 15 Norte 30 Norte 0 932.1 0.2 55
2019-05-29 03:00:00 10.8 18 Norte 39 Noroeste 0 932.2 0.5 54
2019-05-29 02:00:00 11.8 30 Norte 42 Norte 0 931.9 0.7 52
2019-05-29 01:00:00 13.3 26 Norte 38 Noroeste 0 931.9 1.6 47
2019-05-29 00:00:00 14.9 12 Norte 23 Nordeste 0 931.7 2.7 45
2019-05-28 23:00:00 16.7 9 Nordeste 23 Nordeste 0 931.2 3.3 44
2019-05-28 22:00:00 18.4 9 Nordeste 27 Norte 0 930.3 3.2 41
2019-05-28 21:00:00 21.7 14 Norte 33 Norte 0 929 2.6 25
2019-05-28 20:00:00 25.4 18 Norte 35 Nordeste 0 927.9 1.7 17
2019-05-28 19:00:00 26.4 14 Nordeste 35 Norte 0 927.1 0.6 17
2019-05-28 18:00:00 28.5 18 Norte 31 Norte 0 926.4 -0.3 14
2019-05-28 17:00:00 28.3 12 Norte 31 Norte 0 926.2 -0.9 13
2019-05-28 16:00:00 27.6 22 Noroeste 36 Norte 0 926.5 -1.2 12
2019-05-28 15:00:00 26.6 18 Norte 33 Noroeste 0 926.7 -1 19
2019-05-28 14:00:00 25.6 14 Noroeste 34 Noroeste 0 927.1 -0.9 22
2019-05-28 13:00:00 24.5 15 Noroeste 28 Noroeste 0 927.7 -0.3 22
2019-05-28 12:00:00 23 6 Oeste 17 Noroeste 0 927.7 -0.1 34
2019-05-28 11:00:00 21.2 5 Noroeste 14 Noroeste 0 928 0.5 42
2019-05-28 10:00:00 18.7 7 Noroeste 13 Norte 0 928 1.1 48
2019-05-28 09:00:00 16.1 10 Noroeste 15 Noroeste 0 927.8 1.1 57
2019-05-28 08:00:00 12.5 12 Noroeste 17 Noroeste 0 927.5 0.8 72
2019-05-28 07:00:00 10.7 10 Noroeste 15 Noroeste 0 926.9 -0.1 77
2019-05-28 06:00:00 11.3 8 Noroeste 14 Noroeste 0 926.7 -0.6 75
2019-05-28 05:00:00 12.1 7 Noroeste 13 Noroeste 0 926.7 -0.7 72
2019-05-28 04:00:00 13.6 9 Noroeste 18 Norte 0 927 -0.6 66
2019-05-28 03:00:00 13.4 7 Noroeste 17 Norte 0 927.3 -0.3 66
2019-05-28 02:00:00 13.6 10 Norte 14 Noroeste 0 927.4 0.4 69
2019-05-28 01:00:00 14.2 11 Noroeste 15 Noroeste 0 927.6 1.8 70
2019-05-28 00:00:00 14.8 8 Noroeste 12 Noroeste 0 927.6 2.2 69
2019-05-27 23:00:00 16.6 5 Sudoeste 13 Noroeste 0 927 2.3 61
2019-05-27 22:00:00 18.2 13 Sudeste 21 Sudeste 0 925.8 1.4 56
2019-05-27 21:00:00 20.9 12 Sudeste 17 Sudeste 0 925.4 1.1 48
2019-05-27 20:00:00 23.3 5 Este 23 Nordeste 0 924.7 0.5 41
2019-05-27 19:00:00 25.7 9 Sudeste 21 Nordeste 0 924.4 -0.3 32
2019-05-27 18:00:00 25.9 13 Nordeste 28 Este 0 924.3 -1.1 32
2019-05-27 17:00:00 27.4 9 Sudeste 18 Nordeste 0 924.2 -1.9 20
2019-05-27 16:00:00 28 10 Oeste 20 Sur 0 924.7 -2.1 19
2019-05-27 15:00:00 27.5 13 Noroeste 26 Norte 0 925.4 -1.7 22
2019-05-27 14:00:00 26.1 8 Norte 31 Noroeste 0 926.1 -1.2 24
2019-05-27 13:00:00 24.6 8 Noroeste 22 Noroeste 0 926.8 -0.9 26
2019-05-27 12:00:00 23 6 Noroeste 20 Noroeste 0 927.1 -0.6 30
2019-05-27 11:00:00 21.4 10 Norte 20 Norte 0 927.3 -0.3 34
2019-05-27 10:00:00 18.7 4 Norte 12 Noroeste 0 927.7 -0.1 42
2019-05-27 09:00:00 15.7 10 Noroeste 16 Noroeste 0 927.7 0 52
2019-05-27 08:00:00 12.3 8 Noroeste 19 Noroeste 0 927.6 -0.5 64
2019-05-27 07:00:00 10.9 15 Noroeste 27 Noroeste 0 927.8 -0.9 67
2019-05-27 06:00:00 9.6 6 Sudoeste 13 Noroeste 0 927.7 -1.2 71
2019-05-27 05:00:00 10.4 10 Noroeste 17 Noroeste 0 928.1 -1.5 69
2019-05-27 04:00:00 10.5 11 Noroeste 17 Oeste 0 928.7 -1.2 69
2019-05-27 03:00:00 10.7 7 Noroeste 10 Noroeste 0 928.9 -1.2 68
2019-05-27 02:00:00 10.5 6 Noroeste 13 Noroeste 0 929.6 -0.3 72
2019-05-27 01:00:00 11.2 10 Noroeste 13 Norte 0 929.9 0.9 71
2019-05-27 00:00:00 12.5 6 Noroeste 9 Oeste 0 930.1 1.4 64
2019-05-26 23:00:00 15.1 5 Sudeste 18 Sur 0 929.9 1.6 59
2019-05-26 22:00:00 17.1 12 Sudeste 22 Sudeste 0 929 0.7 53
2019-05-26 21:00:00 21.5 6 Nordeste 29 Norte 0 928.7 0.3 31
2019-05-26 20:00:00 23.8 19 Norte 37 Noroeste 0 928.3 -0.4 24
2019-05-26 19:00:00 24.7 13 Norte 32 Norte 0 928.3 -0.8 23
2019-05-26 18:00:00 24.3 18 Norte 35 Norte 0 928.4 -1 25
2019-05-26 17:00:00 23.8 14 Norte 28 Noroeste 0 928.7 -1.2 26
2019-05-26 16:00:00 22.7 16 Noroeste 27 Noroeste 0 929.1 -1.2 27
2019-05-26 15:00:00 21.8 9 Noroeste 24 Noroeste 0 929.4 -1.1 29
2019-05-26 14:00:00 20.5 18 Noroeste 36 Norte 0 929.9 -0.4 29
2019-05-26 13:00:00 19.1 22 Noroeste 36 Noroeste 0 930.3 -0.3 34
2019-05-26 12:00:00 18.6 24 Norte 39 Norte 0 930.5 -0.3 37
2019-05-26 11:00:00 18 22 Norte 33 Norte 0 930.3 -0.8 41
2019-05-26 10:00:00 15.7 21 Norte 37 Norte 0 930.6 -0.3 48
2019-05-26 09:00:00 13.5 25 Norte 37 Norte 0 930.8 0.2 54
2019-05-26 08:00:00 10.5 19 Norte 28 Norte 0 931.1 0.2 66
2019-05-26 07:00:00 9.2 14 Norte 24 Noroeste 0 930.9 -0.4 70
2019-05-26 06:00:00 10 17 Norte 31 Norte 0 930.6 -0.8 68
2019-05-26 05:00:00 10.8 20 Norte 33 Norte 0 930.9 -0.8 66
2019-05-26 04:00:00 11.7 18 Noroeste 35 Norte 0 931.3 -0.7 65
2019-05-26 03:00:00 11.8 16 Noroeste 24 Norte 0 931.4 -0.7 68
2019-05-26 02:00:00 11.4 10 Noroeste 17 Norte 0 931.7 -0.1 72
2019-05-26 01:00:00 11.1 13 Noroeste 15 Noroeste 0 932 0.9 79
2019-05-26 00:00:00 12.3 6 Noroeste 9 Oeste 0 932.1 1.7 71
2019-05-25 23:00:00 14.4 4 Noroeste 12 Sur 0 931.8 1.8 66
2019-05-25 22:00:00 16.5 5 Sur 16 Sudeste 0 931.1 1.4 59
2019-05-25 21:00:00 19.4 6 Este 20 Norte 0 930.4 0.5 44
2019-05-25 20:00:00 20.7 12 Norte 23 Nordeste 0 930 0 37
2019-05-25 19:00:00 20.2 11 Nordeste 23 Nordeste 0 929.7 -0.3 37
2019-05-25 18:00:00 21.5 13 Nordeste 28 Norte 0 929.9 -0.3 34
2019-05-25 17:00:00 20 9 Nordeste 26 Sudeste 0 930 -0.6 39
2019-05-25 16:00:00 20.3 6 Nordeste 31 Norte 0 930 -0.8 36
2019-05-25 15:00:00 21.1 21 Norte 37 Norte 0 930.2 -0.5 38
2019-05-25 14:00:00 20.9 22 Norte 33 Norte 0 930.6 0 38
2019-05-25 13:00:00 19.7 15 Norte 35 Norte 0 930.8 0.4 40
2019-05-25 12:00:00 18 26 Norte 40 Noroeste 0 930.7 0.9 45
2019-05-25 11:00:00 16.4 27 Norte 39 Norte 0 930.6 1.2 50
2019-05-25 10:00:00 13.5 27 Norte 40 Norte 0 930.4 1.5 61
2019-05-25 09:00:00 12.3 24 Norte 40 Norte 0 929.8 1.1 64
2019-05-25 08:00:00 12.2 23 Norte 41 Norte 0 929.4 0.5 65
2019-05-25 07:00:00 11.4 25 Norte 41 Norte 0 928.9 0.1 69
2019-05-25 06:00:00 11.5 22 Norte 39 Norte 0 928.7 -0.2 71
2019-05-25 05:00:00 11.9 18 Norte 30 Norte 0 928.9 -0.1 69
2019-05-25 04:00:00 11.8 20 Norte 35 Norte 0 928.8 -0.5 70
2019-05-25 03:00:00 11.9 18 Norte 37 Norte 0 928.9 -0.6 68
2019-05-25 02:00:00 12.3 24 Norte 39 Norte 0 929 -0.2 66
2019-05-25 01:00:00 12.7 22 Norte 40 Noroeste 0 929.3 0.5 65
2019-05-25 00:00:00 12.6 10 Noroeste 28 Norte 0 929.5 0.9 71
2019-05-24 23:00:00 13.1 13 Norte 26 Norte 0 929.2 0.8 67
2019-05-24 22:00:00 13.6 5 Nordeste 14 Sudeste 0 928.8 0.9 72
2019-05-24 21:00:00 14.7 8 Sur 15 Sudeste 0 928.6 0.8 74
2019-05-24 20:00:00 15.2 8 Sur 29 Norte 0 928.4 0.3 72
2019-05-24 19:00:00 16.9 14 Nordeste 27 Nordeste 0 927.9 -0.2 57
2019-05-24 18:00:00 17 14 Norte 24 Norte 0 927.8 -0.7 64
2019-05-24 17:00:00 16.7 6 Nordeste 17 Nordeste 0 928.1 -0.3 64
2019-05-24 16:00:00 14.5 8 Norte 23 Norte 0 928.1 -0.3 83
2019-05-24 15:00:00 14 14 Sudeste 26 Nordeste 0 928.5 0.4 85
2019-05-24 14:00:00 14.6 16 Norte 26 Norte 0 928.4 0.7 76
2019-05-24 13:00:00 16 14 Sudeste 26 Sudeste 0 928.4 0.1 74
2019-05-24 12:00:00 15.2 8 Sudeste 18 Sur 0 928.1 1 84
2019-05-24 11:00:00 14.2 14 Sudeste 24 Este 1 927.7 -0.1 86
2019-05-24 10:00:00 14.1 6 Noroeste 17 Nordeste 0.8 928.3 1.4 89
2019-05-24 09:00:00 14.2 8 Sudoeste 24 Sudeste 0.2 927.1 0.2 83
2019-05-24 08:00:00 14.2 12 Oeste 21 Noroeste 0 927.8 0.8 71
2019-05-24 07:00:00 14.3 2 Sudoeste 6 Sudeste 0 926.9 -0.3 67
2019-05-24 06:00:00 14.4 0 Calma 10 Noroeste 0 926.9 -0.8 67
2019-05-24 05:00:00 14.8 6 Norte 10 Norte 0 927 -1.2 66
2019-05-24 04:00:00 15 6 Noroeste 12 Noroeste 0 927.2 -1.5 65
2019-05-24 03:00:00 14.9 8 Norte 15 Norte 0 927.7 -1.3 66
2019-05-24 02:00:00 15.3 8 Noroeste 11 Noroeste 0 928.2 -0.8 70
2019-05-24 01:00:00 16.2 8 Noroeste 11 Noroeste 0 928.7 0.3 68
2019-05-24 00:00:00 17.1 7 Noroeste 14 Noroeste 0 929 0.9 64
2019-05-23 23:00:00 18.2 8 Noroeste 10 Noroeste 0 929 1.1 62
2019-05-23 22:00:00 20.5 7 Sur 22 Sudeste 0 928.4 0.1 52
2019-05-23 21:00:00 22.9 14 Sudeste 21 Sudeste 0 928.1 -0.5 44
2019-05-23 20:00:00 27.1 9 Oeste 22 Sudoeste 0 927.9 -1.1 20
2019-05-23 19:00:00 27.7 19 Oeste 29 Oeste 0 928.3 -1.2 19
2019-05-23 18:00:00 26.9 14 Oeste 27 Oeste 0 928.6 -1.5 19
2019-05-23 17:00:00 26.2 6 Oeste 26 Oeste 0 929 -1.4 21
2019-05-23 16:00:00 26.1 10 Oeste 28 Oeste 0 929.5 -1.5 22
2019-05-23 15:00:00 26.3 14 Oeste 26 Sudoeste 0 930.1 -1.3 22
2019-05-23 14:00:00 26.8 12 Oeste 21 Sudoeste 0 930.4 -1.2 23
2019-05-23 13:00:00 25.2 10 Sudoeste 18 Sudoeste 0 931 -0.7 32
2019-05-23 12:00:00 23.2 8 Sur 19 Sur 0 931.4 -0.1 34
2019-05-23 11:00:00 20.5 8 Sudoeste 13 Sudoeste 0 931.6 0.1 41
2019-05-23 10:00:00 18.4 2 Sudoeste 9 Noroeste 0 931.7 0.5 51
2019-05-23 09:00:00 14.5 5 Noroeste 8 Noroeste 0 931.5 0.4 66
2019-05-23 08:00:00 11.3 5 Noroeste 12 Noroeste 0 931.5 0.5 78
2019-05-23 07:00:00 9.1 6 Noroeste 11 Noroeste 0 931.2 -0.2 82
2019-05-23 06:00:00 9.2 5 Norte 10 Norte 0 931.1 -0.5 83
2019-05-23 05:00:00 9.8 8 Norte 11 Norte 0 931 -0.8 85
2019-05-23 04:00:00 10.5 7 Norte 11 Norte 0 931.4 -0.6 82
2019-05-23 03:00:00 12 9 Noroeste 12 Noroeste 0 931.6 -0.4 79
2019-05-23 02:00:00 12.9 8 Noroeste 13 Noroeste 0 931.8 -0.1 78
2019-05-23 01:00:00 13.6 10 Noroeste 17 Noroeste 0 932 0.8 76
2019-05-23 00:00:00 14 8 Noroeste 14 Noroeste 0 932 1.4 75
2019-05-22 23:00:00 14.6 9 Noroeste 11 Noroeste 0 931.9 1.8 72
2019-05-22 22:00:00 17.2 6 Norte 15 Sudeste 0 931.2 1.4 63
2019-05-22 21:00:00 18.9 9 Sudeste 24 Sudeste 0 930.6 0.9 59
2019-05-22 20:00:00 20.4 15 Sudeste 30 Sudeste 0 930.1 0.4 53
2019-05-22 19:00:00 21.3 21 Sudeste 36 Sudeste 0 929.8 -0.5 50
2019-05-22 18:00:00 23.4 22 Sudeste 32 Sudeste 0 929.7 -0.9 38
2019-05-22 17:00:00 24.4 9 Sudeste 21 Sudeste 0 929.7 -1.4 24
2019-05-22 16:00:00 24.5 6 Sudoeste 24 Sur 0 930.3 -1.2 25
2019-05-22 15:00:00 24.8 12 Sudoeste 24 Sudeste 0 930.6 -1.2 24
2019-05-22 14:00:00 23.8 12 Sudeste 23 Sur 0 931.1 -0.5 30
2019-05-22 13:00:00 22.3 9 Sudeste 23 Sur 0 931.5 0 36
2019-05-22 12:00:00 20.5 9 Este 20 Sudeste 0 931.8 0.5 36
2019-05-22 11:00:00 19.2 14 Sudeste 21 Sudeste 0 931.6 0.5 42
2019-05-22 10:00:00 17 5 Sur 9 Sudoeste 0 931.5 0.7 52
2019-05-22 09:00:00 13.5 5 Norte 13 Norte 0 931.3 0.8 68
2019-05-22 08:00:00 9.5 10 Noroeste 16 Norte 0 931.1 0.7 81
2019-05-22 07:00:00 8.3 9 Noroeste 14 Noroeste 0 930.8 0.4 86
2019-05-22 06:00:00 7.8 6 Norte 10 Noroeste 0 930.5 0 87
2019-05-22 05:00:00 8.5 10 Noroeste 14 Noroeste 0 930.4 -0.4 85
2019-05-22 04:00:00 8.7 7 Noroeste 12 Noroeste 0 930.4 -0.6 85
2019-05-22 03:00:00 9.2 9 Norte 15 Norte 0 930.5 -0.7 84
2019-05-22 02:00:00 9.9 8 Noroeste 17 Noroeste 0 930.8 -0.4 85
2019-05-22 01:00:00 10.2 9 Noroeste 14 Noroeste 0 931 0.2 87
2019-05-22 00:00:00 11 9 Noroeste 13 Noroeste 0 931.2 0.8 86